Time;durP1;ratioP1;P1;durP2;ratioP2;P2;SDS_P1;SDS_P2;PMS_P1;PMS_P2;Temp;Humidity;BMP_temperature;BMP_pressure;BME280_temperature;BME280_humidity;BME280_pressure;Samples;Min_cycle;Max_cycle;Signal;HPM_P1;HPM_P2
2023/05/28 00:02:18;;;;;;;;;;;13.50;99.90;;;;;;4995135;28;20052;-67
2023/05/28 00:04:50;;;;;;;;;;;13.40;99.90;;;;;;5000496;28;20431;-67
2023/05/28 00:07:17;;;;;;;;;;;13.40;99.90;;;;;;5002029;28;20230;-67
2023/05/28 00:09:48;;;;;;;;;;;13.30;99.90;;;;;;5004053;28;20016;-67
2023/05/28 00:12:21;;;;;;;;;;;13.30;99.90;;;;;;4994806;28;19926;-67
2023/05/28 00:14:53;;;;;;;;;;;13.20;99.90;;;;;;4995086;28;19941;-67
2023/05/28 00:17:25;;;;;;;;;;;13.20;99.90;;;;;;4981207;28;19930;-67
2023/05/28 00:19:51;;;;;;;;;;;13.10;99.90;;;;;;4994829;28;20029;-67
2023/05/28 00:22:23;;;;;;;;;;;13.10;99.90;;;;;;4993843;28;19926;-67
2023/05/28 00:24:55;;;;;;;;;;;13.10;99.90;;;;;;4995361;28;20366;-67
2023/05/28 00:27:27;;;;;;;;;;;13.00;99.90;;;;;;5010787;28;19930;-67
2023/05/28 00:29:58;;;;;;;;;;;13.00;99.90;;;;;;4996141;28;20397;-67
2023/05/28 00:32:30;;;;;;;;;;;13.00;99.90;;;;;;5006744;28;19961;-67
2023/05/28 00:35:02;;;;;;;;;;;12.90;99.90;;;;;;4993833;28;19926;-67
2023/05/28 00:37:35;;;;;;;;;;;12.80;99.90;;;;;;4993494;28;20245;-67
2023/05/28 00:40:07;;;;;;;;;;;12.80;99.90;;;;;;4994271;28;19930;-67
2023/05/28 00:42:34;;;;;;;;;;;12.80;99.90;;;;;;4980765;28;20009;-67
2023/05/28 00:45:06;;;;;;;;;;;12.80;99.90;;;;;;4996814;28;19932;-67
2023/05/28 00:47:33;;;;;;;;;;;12.70;99.90;;;;;;4993227;28;20024;-67
2023/05/28 00:50:06;;;;;;;;;;;12.60;99.90;;;;;;4978775;28;20304;-67
2023/05/28 00:52:37;;;;;;;;;;;12.60;99.90;;;;;;4998235;28;20274;-67
2023/05/28 00:55:16;;;;;;;;;;;12.60;99.90;;;;;;4984930;28;19936;-67
2023/05/28 00:57:48;;;;;;;;;;;12.60;99.90;;;;;;4979034;28;20004;-67
2023/05/28 01:00:21;;;;;;;;;;;12.60;99.90;;;;;;4985907;28;19926;-67
2023/05/28 01:02:53;;;;;;;;;;;12.50;99.90;;;;;;4968262;28;19941;-67
2023/05/28 01:05:25;;;;;;;;;;;12.40;99.90;;;;;;4982020;28;20019;-67
2023/05/28 01:07:52;;;;;;;;;;;12.40;99.90;;;;;;4992568;28;19926;-67
2023/05/28 01:10:19;;;;;;;;;;;12.40;99.90;;;;;;4991322;28;19936;-67
2023/05/28 01:12:48;;;;;;;;;;;12.40;99.90;;;;;;4994220;28;19936;-67
2023/05/28 01:15:19;;;;;;;;;;;12.40;99.90;;;;;;4979570;28;19932;-67
2023/05/28 01:17:57;;;;;;;;;;;12.40;99.90;;;;;;4991017;28;20012;-67
2023/05/28 01:20:26;;;;;;;;;;;12.50;99.90;;;;;;4993997;28;20392;-67
2023/05/28 01:22:54;;;;;;;;;;;12.40;99.90;;;;;;4977344;28;19976;-67
2023/05/28 01:25:22;;;;;;;;;;;12.30;99.90;;;;;;4969251;28;20419;-67
2023/05/28 01:27:56;;;;;;;;;;;12.30;99.90;;;;;;4975344;28;20498;-67
2023/05/28 01:30:28;;;;;;;;;;;12.30;99.90;;;;;;4981275;28;19929;-67
2023/05/28 01:33:00;;;;;;;;;;;12.30;99.90;;;;;;5012608;22;19972;-64
2023/05/28 01:35:32;;;;;;;;;;;12.20;99.90;;;;;;4966181;28;19926;-64
2023/05/28 01:38:00;;;;;;;;;;;12.10;99.90;;;;;;4964015;28;19944;-64
2023/05/28 01:40:33;;;;;;;;;;;12.10;99.90;;;;;;4967418;28;20016;-64
2023/05/28 01:43:05;;;;;;;;;;;12.00;99.90;;;;;;4958529;28;19926;-64
2023/05/28 01:45:38;;;;;;;;;;;12.00;99.90;;;;;;4963930;28;20420;-64
2023/05/28 01:48:10;;;;;;;;;;;12.00;99.90;;;;;;4966225;28;20016;-64
2023/05/28 01:50:42;;;;;;;;;;;11.90;99.90;;;;;;4967515;28;19926;-64
2023/05/28 01:53:14;;;;;;;;;;;11.80;99.90;;;;;;4983829;28;19926;-63
2023/05/28 01:55:45;;;;;;;;;;;11.80;99.90;;;;;;4965435;28;19926;-64
2023/05/28 01:58:17;;;;;;;;;;;11.90;99.90;;;;;;4953178;28;19929;-64
2023/05/28 02:01:10;;;;;;;;;;;11.90;99.90;;;;;;4946900;28;19941;-64
2023/05/28 02:03:42;;;;;;;;;;;11.80;99.90;;;;;;4965691;28;20017;-64
2023/05/28 02:06:10;;;;;;;;;;;11.80;99.90;;;;;;4980951;28;19940;-64
2023/05/28 02:08:37;;;;;;;;;;;11.80;99.90;;;;;;4980398;28;19969;-64
2023/05/28 02:11:09;;;;;;;;;;;11.80;99.90;;;;;;4966138;28;19932;-64
2023/05/28 02:13:41;;;;;;;;;;;11.80;99.90;;;;;;4983675;28;19925;-64
2023/05/28 02:16:17;;;;;;;;;;;11.80;99.90;;;;;;4982942;28;20036;-64
2023/05/28 02:18:50;;;;;;;;;;;11.80;99.90;;;;;;4966817;28;19981;-64
2023/05/28 02:21:23;;;;;;;;;;;11.80;99.90;;;;;;4967359;28;19929;-64
2023/05/28 02:23:50;;;;;;;;;;;11.80;99.90;;;;;;4980796;28;20420;-64
2023/05/28 02:26:22;;;;;;;;;;;11.70;99.90;;;;;;4982510;28;19930;-64
2023/05/28 02:28:54;;;;;;;;;;;11.60;99.90;;;;;;4976376;28;19933;-64
2023/05/28 02:31:26;;;;;;;;;;;11.60;99.90;;;;;;4961451;28;19948;-64
2023/05/28 02:33:57;;;;;;;;;;;11.60;99.90;;;;;;4981612;28;19930;-64
2023/05/28 02:36:29;;;;;;;;;;;11.60;99.90;;;;;;4978630;28;19930;-64
2023/05/28 02:39:02;;;;;;;;;;;11.50;99.90;;;;;;4981377;28;20370;-64
2023/05/28 02:41:34;;;;;;;;;;;11.50;99.90;;;;;;4981335;28;19930;-64
2023/05/28 02:44:06;;;;;;;;;;;11.40;99.90;;;;;;4965694;28;19926;-64
2023/05/28 02:46:33;;;;;;;;;;;11.40;99.90;;;;;;4980471;28;20020;-64
2023/05/28 02:49:06;;;;;;;;;;;11.30;99.90;;;;;;4979663;28;20275;-64
2023/05/28 02:51:37;;;;;;;;;;;11.30;99.90;;;;;;4958827;28;20016;-64
2023/05/28 02:54:29;;;;;;;;;;;11.20;99.90;;;;;;4976029;28;19937;-64
2023/05/28 02:57:02;;;;;;;;;;;11.20;99.90;;;;;;4960927;28;19930;-64
2023/05/28 02:59:34;;;;;;;;;;;11.10;99.90;;;;;;4978525;28;19926;-64
2023/05/28 03:02:06;;;;;;;;;;;11.10;99.90;;;;;;4980397;28;19934;-64
2023/05/28 03:04:37;;;;;;;;;;;11.00;99.90;;;;;;4983351;28;19933;-64
2023/05/28 03:07:06;;;;;;;;;;;11.00;99.90;;;;;;4973913;28;19926;-63
2023/05/28 03:09:38;;;;;;;;;;;11.00;99.90;;;;;;4957769;28;20021;-64
2023/05/28 03:12:10;;;;;;;;;;;11.00;99.90;;;;;;4979463;28;20294;-64
2023/05/28 03:14:42;;;;;;;;;;;10.90;99.90;;;;;;4978358;28;19930;-64
2023/05/28 03:17:14;;;;;;;;;;;10.90;99.90;;;;;;4956438;28;19961;-64
2023/05/28 03:19:46;;;;;;;;;;;10.90;99.90;;;;;;4964261;28;19933;-64
2023/05/28 03:22:20;;;;;;;;;;;10.90;99.90;;;;;;4974549;28;19926;-64
2023/05/28 03:24:47;;;;;;;;;;;10.80;99.90;;;;;;4984611;28;20299;-64
2023/05/28 03:27:23;;;;;;;;;;;10.80;99.90;;;;;;4969755;28;19925;-64
2023/05/28 03:29:56;;;;;;;;;;;10.90;99.90;;;;;;4979920;28;19937;-64
2023/05/28 03:32:42;;;;;;;;;;;10.90;99.90;;;;;;4965752;28;20302;-64
2023/05/28 03:35:14;;;;;;;;;;;10.90;99.90;;;;;;4967080;28;19930;-64
2023/05/28 03:37:47;;;;;;;;;;;10.90;99.90;;;;;;4965390;28;20313;-64
2023/05/28 03:40:14;;;;;;;;;;;10.90;99.90;;;;;;4978668;28;19934;-64
2023/05/28 03:42:48;;;;;;;;;;;10.90;99.90;;;;;;4979580;28;19933;-64
2023/05/28 03:45:19;;;;;;;;;;;10.90;99.90;;;;;;4965010;28;19934;-64
2023/05/28 03:47:52;;;;;;;;;;;10.90;99.90;;;;;;4990977;28;19926;-64
2023/05/28 03:50:20;;;;;;;;;;;10.90;99.90;;;;;;4990306;28;20515;-64
2023/05/28 03:52:52;;;;;;;;;;;10.90;99.90;;;;;;4985552;28;19984;-64
2023/05/28 03:55:19;;;;;;;;;;;10.90;99.90;;;;;;4987580;28;19961;-64
2023/05/28 03:57:51;;;;;;;;;;;10.90;99.90;;;;;;4982876;28;20583;-64
2023/05/28 04:00:23;;;;;;;;;;;10.90;99.90;;;;;;4962466;28;19977;-64
2023/05/28 04:02:55;;;;;;;;;;;10.90;99.90;;;;;;4980473;28;19933;-64
2023/05/28 04:05:22;;;;;;;;;;;10.90;99.90;;;;;;4976221;28;19926;-64
2023/05/28 04:07:53;;;;;;;;;;;10.90;99.90;;;;;;4958890;28;20317;-64
2023/05/28 04:10:25;;;;;;;;;;;10.90;99.90;;;;;;4974016;28;19926;-64
2023/05/28 04:12:54;;;;;;;;;;;10.90;99.90;;;;;;4983687;28;20020;-64
2023/05/28 04:15:21;;;;;;;;;;;11.00;99.90;;;;;;4982290;28;19929;-64
2023/05/28 04:17:48;;;;;;;;;;;10.90;99.90;;;;;;4984847;28;19926;-64
2023/05/28 04:20:20;;;;;;;;;;;10.90;99.90;;;;;;4985865;28;19926;-64
2023/05/28 04:22:52;;;;;;;;;;;10.90;99.90;;;;;;4989154;28;19933;-64
2023/05/28 04:25:20;;;;;;;;;;;11.00;99.90;;;;;;4977146;28;19968;-64
2023/05/28 04:27:52;;;;;;;;;;;10.90;99.90;;;;;;4974852;28;19948;-64
2023/05/28 04:30:24;;;;;;;;;;;10.80;99.90;;;;;;4986154;28;19933;-64
2023/05/28 04:32:58;;;;;;;;;;;10.80;99.90;;;;;;4968198;28;19926;-64
2023/05/28 04:35:26;;;;;;;;;;;10.80;99.90;;;;;;4972358;28;20040;-64
2023/05/28 04:37:53;;;;;;;;;;;10.80;99.90;;;;;;4967105;28;20409;-64
2023/05/28 04:40:25;;;;;;;;;;;10.80;99.90;;;;;;4984944;28;19925;-64
2023/05/28 04:42:57;;;;;;;;;;;10.80;99.90;;;;;;4968462;28;20486;-64
2023/05/28 04:45:26;;;;;;;;;;;10.80;99.90;;;;;;4956099;28;19936;-64
2023/05/28 04:47:58;;;;;;;;;;;10.90;99.90;;;;;;4987809;28;19926;-64
2023/05/28 04:50:30;;;;;;;;;;;10.90;99.90;;;;;;4952393;28;19934;-64
2023/05/28 04:52:57;;;;;;;;;;;11.00;99.90;;;;;;4968459;28;19926;-64
2023/05/28 04:55:29;;;;;;;;;;;11.10;99.90;;;;;;4980786;28;19926;-64
2023/05/28 04:58:00;;;;;;;;;;;11.10;99.90;;;;;;4981267;28;19981;-64
2023/05/28 05:00:34;;;;;;;;;;;11.10;99.90;;;;;;4970532;28;19929;-64
2023/05/28 05:03:08;;;;;;;;;;;11.20;99.90;;;;;;4970554;28;19933;-64
2023/05/28 05:05:40;;;;;;;;;;;11.30;99.90;;;;;;4983918;28;20378;-64
2023/05/28 05:08:09;;;;;;;;;;;11.20;99.90;;;;;;4982508;28;19932;-64
2023/05/28 05:10:42;;;;;;;;;;;11.30;99.90;;;;;;4985207;28;19930;-64
2023/05/28 05:13:14;;;;;;;;;;;11.40;99.90;;;;;;4975136;28;20314;-64
2023/05/28 05:15:43;;;;;;;;;;;11.40;99.90;;;;;;4974092;28;20013;-64
2023/05/28 05:18:09;;;;;;;;;;;11.50;99.90;;;;;;4982463;28;19926;-64
2023/05/28 05:20:41;;;;;;;;;;;11.50;99.90;;;;;;4964553;28;20309;-64
2023/05/28 05:23:14;;;;;;;;;;;11.60;99.90;;;;;;4982185;28;19953;-64
2023/05/28 05:25:47;;;;;;;;;;;11.60;99.90;;;;;;4964128;28;20293;-64
2023/05/28 05:28:19;;;;;;;;;;;11.70;99.90;;;;;;4983710;28;19969;-64
2023/05/28 05:30:51;;;;;;;;;;;11.70;99.90;;;;;;4966398;28;19973;-64
2023/05/28 05:33:23;;;;;;;;;;;11.70;99.90;;;;;;4981305;28;19957;-64
2023/05/28 05:36:18;;;;;;;;;;;11.80;99.90;;;;;;4967389;28;19926;-64
2023/05/28 05:38:59;;;;;;;;;;;11.90;99.90;;;;;;4973668;28;19961;-65
2023/05/28 05:41:42;;;;;;;;;;;11.90;99.90;;;;;;4966650;28;19937;-66
2023/05/28 05:44:23;;;;;;;;;;;12.00;99.90;;;;;;4978908;28;20012;-65
2023/05/28 05:46:55;;;;;;;;;;;12.10;99.90;;;;;;4978208;28;20604;-64
2023/05/28 05:49:27;;;;;;;;;;;12.20;99.90;;;;;;4977519;28;20406;-64
2023/05/28 05:51:59;;;;;;;;;;;12.20;99.90;;;;;;4965076;28;19929;-64
2023/05/28 05:54:34;;;;;;;;;;;12.20;99.90;;;;;;4964475;28;19930;-64
2023/05/28 05:57:04;;;;;;;;;;;12.30;99.90;;;;;;4963981;28;20424;-64
2023/05/28 05:59:38;;;;;;;;;;;12.40;99.90;;;;;;4959142;28;19937;-64
2023/05/28 06:02:10;;;;;;;;;;;12.40;99.90;;;;;;4984833;28;20020;-64
2023/05/28 06:04:42;;;;;;;;;;;12.50;99.90;;;;;;4966827;28;19930;-65
2023/05/28 06:07:12;;;;;;;;;;;12.50;99.90;;;;;;4982525;28;20373;-64
2023/05/28 06:09:53;;;;;;;;;;;12.60;99.90;;;;;;4976557;28;19926;-64
2023/05/28 06:12:31;;;;;;;;;;;12.70;99.90;;;;;;4959607;28;19930;-64
2023/05/28 06:15:04;;;;;;;;;;;12.80;99.90;;;;;;4962363;28;19926;-65
2023/05/28 06:17:31;;;;;;;;;;;12.80;99.90;;;;;;4961044;28;19984;-64
2023/05/28 06:20:06;;;;;;;;;;;12.90;99.90;;;;;;4979536;28;19931;-65
2023/05/28 06:22:38;;;;;;;;;;;13.00;99.90;;;;;;4989149;28;19973;-65
2023/05/28 06:25:06;;;;;;;;;;;13.10;99.90;;;;;;4983498;28;20394;-65
2023/05/28 06:27:38;;;;;;;;;;;13.20;99.90;;;;;;4981220;28;19978;-64
2023/05/28 06:30:07;;;;;;;;;;;13.40;99.90;;;;;;4979194;28;19981;-64
2023/05/28 06:32:34;;;;;;;;;;;13.50;99.90;;;;;;4961756;28;20353;-64
2023/05/28 06:35:06;;;;;;;;;;;13.60;99.90;;;;;;4977067;28;19926;-64
2023/05/28 06:37:33;;;;;;;;;;;13.70;99.90;;;;;;4958504;28;19926;-63
2023/05/28 06:40:06;;;;;;;;;;;13.80;99.90;;;;;;4962720;28;19960;-65
2023/05/28 06:42:38;;;;;;;;;;;13.90;99.90;;;;;;4965005;28;19926;-65
2023/05/28 06:45:32;;;;;;;;;;;14.00;99.90;;;;;;4966741;28;19940;-65
2023/05/28 06:48:06;;;;;;;;;;;14.20;99.90;;;;;;4970710;28;19965;-64
2023/05/28 06:50:33;;;;;;;;;;;14.30;99.90;;;;;;4968570;28;19926;-64
2023/05/28 06:53:05;;;;;;;;;;;14.40;99.90;;;;;;4971661;28;20297;-64
2023/05/28 06:55:37;;;;;;;;;;;14.50;99.90;;;;;;4984898;28;20620;-64
2023/05/28 06:58:28;;;;;;;;;;;14.60;99.90;;;;;;4977149;28;19949;-64
2023/05/28 07:01:18;;;;;;;;;;;14.70;99.90;;;;;;4974857;28;19933;-65
2023/05/28 07:04:11;;;;;;;;;;;14.90;99.90;;;;;;4961004;28;19974;-65
2023/05/28 07:06:47;;;;;;;;;;;15.00;99.90;;;;;;4986007;28;19933;-65
2023/05/28 07:09:26;;;;;;;;;;;15.10;99.90;;;;;;4969589;28;20390;-65
2023/05/28 07:11:58;;;;;;;;;;;15.20;99.90;;;;;;4966326;28;19969;-66
2023/05/28 07:14:32;;;;;;;;;;;15.40;99.90;;;;;;4965119;28;19926;-65
2023/05/28 07:16:59;;;;;;;;;;;15.40;99.90;;;;;;4982074;28;20017;-65
2023/05/28 07:19:31;;;;;;;;;;;15.50;99.90;;;;;;4985590;28;20004;-65
2023/05/28 07:22:03;;;;;;;;;;;15.70;99.90;;;;;;4967510;28;19926;-65
2023/05/28 07:24:36;;;;;;;;;;;15.70;99.90;;;;;;4941710;28;20310;-65
2023/05/28 07:27:08;;;;;;;;;;;15.80;99.90;;;;;;4985461;28;20472;-65
2023/05/28 07:29:40;;;;;;;;;;;16.00;99.90;;;;;;4970912;28;19925;-65
2023/05/28 07:32:11;;;;;;;;;;;16.10;99.90;;;;;;4972973;28;19938;-64
2023/05/28 07:34:44;;;;;;;;;;;16.20;99.90;;;;;;4959179;28;19932;-65
2023/05/28 07:37:16;;;;;;;;;;;16.30;99.90;;;;;;4958924;28;20278;-65
2023/05/28 07:39:48;;;;;;;;;;;16.40;99.90;;;;;;4981978;28;20369;-65
2023/05/28 07:42:15;;;;;;;;;;;16.50;99.90;;;;;;4982387;28;19992;-65
2023/05/28 07:44:57;;;;;;;;;;;16.60;99.90;;;;;;4983291;28;19934;-65
2023/05/28 07:47:30;;;;;;;;;;;16.80;99.90;;;;;;4986435;23;20008;-68
2023/05/28 07:50:05;;;;;;;;;;;16.90;99.90;;;;;;4982176;28;19933;-70
2023/05/28 07:53:01;;;;;;;;;;;17.10;99.90;;;;;;4981872;28;20417;-66
2023/05/28 07:55:33;;;;;;;;;;;17.20;99.90;;;;;;4995801;28;19934;-68
2023/05/28 07:58:06;;;;;;;;;;;17.30;99.90;;;;;;4979244;28;19926;-68
2023/05/28 08:00:39;;;;;;;;;;;17.40;99.90;;;;;;4979523;28;20024;-68
2023/05/28 08:03:11;;;;;;;;;;;17.50;99.90;;;;;;4971364;28;20027;-68
2023/05/28 08:05:46;;;;;;;;;;;17.60;99.90;;;;;;4982247;28;19947;-68
2023/05/28 08:08:18;;;;;;;;;;;17.80;99.90;;;;;;4983544;28;19932;-68
2023/05/28 08:10:50;;;;;;;;;;;17.90;99.90;;;;;;4983707;28;19933;-68
2023/05/28 08:13:22;;;;;;;;;;;18.00;99.90;;;;;;4963889;28;20321;-66
2023/05/28 08:15:58;;;;;;;;;;;18.10;99.90;;;;;;4983587;28;19937;-69
2023/05/28 08:18:40;;;;;;;;;;;18.20;99.90;;;;;;4974729;28;19926;-68
2023/05/28 08:21:12;;;;;;;;;;;18.40;99.90;;;;;;4980786;28;19953;-68
2023/05/28 08:23:44;;;;;;;;;;;18.50;99.90;;;;;;4987782;28;19926;-68
2023/05/28 08:26:11;;;;;;;;;;;18.60;99.90;;;;;;4986202;28;19930;-68
2023/05/28 08:28:42;;;;;;;;;;;18.80;99.90;;;;;;4986683;28;19930;-69
2023/05/28 08:31:14;;;;;;;;;;;18.90;99.90;;;;;;4990029;28;20374;-68
2023/05/28 08:34:12;;;;;;;;;;;18.90;99.90;;;;;;4978573;28;19959;-69
2023/05/28 08:36:40;;;;;;;;;;;19.00;99.90;;;;;;4984782;28;19930;-68
2023/05/28 08:39:12;;;;;;;;;;;19.10;99.90;;;;;;4983209;28;19984;-67
2023/05/28 08:41:42;;;;;;;;;;;19.20;99.90;;;;;;4987312;28;20004;-69
2023/05/28 08:44:09;;;;;;;;;;;19.30;99.90;;;;;;4986134;28;19926;-69
2023/05/28 08:46:41;;;;;;;;;;;19.40;99.90;;;;;;4988208;28;20053;-67
2023/05/28 08:49:32;;;;;;;;;;;19.50;99.90;;;;;;4982441;28;19976;-68
2023/05/28 08:52:08;;;;;;;;;;;19.60;99.90;;;;;;4990101;28;19926;-66
2023/05/28 08:54:41;;;;;;;;;;;19.80;99.90;;;;;;4986663;28;19930;-67
2023/05/28 08:57:13;;;;;;;;;;;19.90;99.90;;;;;;4981045;28;19926;-66
2023/05/28 08:59:52;;;;;;;;;;;20.10;99.90;;;;;;4985609;28;19952;-67
2023/05/28 09:02:23;;;;;;;;;;;20.10;99.90;;;;;;4985233;28;20009;-68
2023/05/28 09:04:51;;;;;;;;;;;20.20;99.90;;;;;;4984871;28;19933;-69
2023/05/28 09:07:26;;;;;;;;;;;20.30;99.90;;;;;;4971670;28;19929;-69
2023/05/28 09:10:01;;;;;;;;;;;20.40;99.90;;;;;;4984835;28;19926;-68
2023/05/28 09:12:37;;;;;;;;;;;20.50;99.90;;;;;;4968559;28;20888;-68
2023/05/28 09:15:05;;;;;;;;;;;20.60;99.90;;;;;;4981365;28;19929;-68
2023/05/28 09:17:32;;;;;;;;;;;20.80;99.90;;;;;;4988213;28;20024;-68
2023/05/28 09:20:14;;;;;;;;;;;20.90;98.40;;;;;;4984886;28;19985;-68
2023/05/28 09:22:56;;;;;;;;;;;21.00;97.70;;;;;;4986714;28;20008;-68
2023/05/28 09:25:38;;;;;;;;;;;21.10;96.10;;;;;;4984840;28;19926;-67
2023/05/28 09:28:16;;;;;;;;;;;21.10;96.40;;;;;;4975541;28;19930;-68
2023/05/28 09:30:43;;;;;;;;;;;21.20;98.20;;;;;;4981047;28;20001;-67
2023/05/28 09:33:17;;;;;;;;;;;21.20;95.70;;;;;;4994032;28;20420;-69
2023/05/28 09:35:57;;;;;;;;;;;21.30;97.10;;;;;;4983750;28;20027;-67
2023/05/28 09:38:39;;;;;;;;;;;21.40;96.30;;;;;;4976614;28;20556;-67
2023/05/28 09:41:19;;;;;;;;;;;21.50;95.80;;;;;;4982555;28;20017;-68
2023/05/28 09:43:57;;;;;;;;;;;21.60;94.30;;;;;;4978315;28;19930;-69
2023/05/28 09:46:29;;;;;;;;;;;21.70;93.70;;;;;;4986329;28;20024;-69
2023/05/28 09:49:02;;;;;;;;;;;21.80;94.10;;;;;;4976651;28;20365;-68
2023/05/28 09:51:30;;;;;;;;;;;21.90;93.20;;;;;;4978091;28;19932;-68
2023/05/28 09:54:03;;;;;;;;;;;22.00;92.70;;;;;;4976135;28;20303;-68
2023/05/28 09:56:37;;;;;;;;;;;22.10;93.40;;;;;;4974331;28;19951;-68
2023/05/28 09:59:11;;;;;;;;;;;22.20;92.40;;;;;;4975980;28;20306;-68
2023/05/28 10:01:58;;;;;;;;;;;22.30;91.90;;;;;;4974880;28;20016;-68
2023/05/28 10:04:35;;;;;;;;;;;22.40;92.30;;;;;;4985089;28;20317;-68
2023/05/28 10:07:09;;;;;;;;;;;22.50;91.50;;;;;;4984061;28;20420;-68
2023/05/28 10:09:38;;;;;;;;;;;22.50;91.10;;;;;;4982146;28;20420;-68
2023/05/28 10:12:12;;;;;;;;;;;22.60;90.20;;;;;;4980142;28;19936;-68
2023/05/28 10:14:44;;;;;;;;;;;22.60;89.20;;;;;;4978091;28;19926;-68
2023/05/28 10:17:16;;;;;;;;;;;22.60;86.50;;;;;;4976648;28;20303;-67
2023/05/28 10:19:48;;;;;;;;;;;22.70;84.70;;;;;;4973824;28;20029;-68
2023/05/28 10:22:16;;;;;;;;;;;22.70;86.90;;;;;;4980519;28;19973;-68
2023/05/28 10:24:48;;;;;;;;;;;22.70;88.70;;;;;;4983833;28;19929;-69
2023/05/28 10:27:20;;;;;;;;;;;22.90;86.60;;;;;;4985306;28;19930;-68
2023/05/28 10:29:52;;;;;;;;;;;22.90;86.40;;;;;;4988360;28;19926;-68
2023/05/28 10:32:23;;;;;;;;;;;23.10;85.70;;;;;;4967076;28;19930;-68
2023/05/28 10:35:02;;;;;;;;;;;23.10;83.70;;;;;;4980008;28;19940;-67
2023/05/28 10:37:35;;;;;;;;;;;23.20;83.50;;;;;;4981852;28;19930;-67
2023/05/28 10:40:02;;;;;;;;;;;23.20;82.50;;;;;;4982424;28;20703;-67
2023/05/28 10:42:29;;;;;;;;;;;23.30;81.60;;;;;;4974931;28;20032;-67
2023/05/28 10:44:59;;;;;;;;;;;23.30;83.60;;;;;;4973418;28;19930;-67
2023/05/28 10:47:34;;;;;;;;;;;23.50;81.40;;;;;;4990027;28;19926;-67
2023/05/28 10:50:12;;;;;;;;;;;23.50;78.20;;;;;;4981594;28;19927;-68
2023/05/28 10:53:12;;;;;;;;;;;23.60;80.50;;;;;;4984610;28;19930;-68
2023/05/28 10:55:53;;;;;;;;;;;23.70;78.50;;;;;;4980295;28;19929;-67
2023/05/28 10:58:35;;;;;;;;;;;23.80;77.70;;;;;;4986084;28;19930;-68
2023/05/28 11:01:10;;;;;;;;;;;23.80;76.90;;;;;;4984921;28;20013;-66
2023/05/28 11:03:46;;;;;;;;;;;23.90;73.00;;;;;;4984954;28;20484;-66
2023/05/28 11:06:18;;;;;;;;;;;23.90;74.00;;;;;;4982267;28;19926;-67
2023/05/28 11:08:50;;;;;;;;;;;23.80;71.60;;;;;;4979005;28;20016;-68
2023/05/28 11:11:17;;;;;;;;;;;23.80;75.10;;;;;;4980054;28;19949;-67
2023/05/28 11:13:49;;;;;;;;;;;23.90;72.90;;;;;;4981801;28;19993;-68
2023/05/28 11:16:21;;;;;;;;;;;24.00;73.30;;;;;;4979762;28;19926;-68
2023/05/28 11:19:08;;;;;;;;;;;24.10;75.00;;;;;;4978664;28;19933;-67
2023/05/28 11:21:49;;;;;;;;;;;24.30;72.50;;;;;;4980712;28;20398;-68
2023/05/28 11:24:21;;;;;;;;;;;24.40;72.40;;;;;;4983172;28;19933;-68
2023/05/28 11:26:48;;;;;;;;;;;24.50;69.60;;;;;;4985130;28;19980;-68
2023/05/28 11:29:20;;;;;;;;;;;24.50;68.90;;;;;;4985031;28;19936;-68
2023/05/28 11:31:47;;;;;;;;;;;24.60;71.10;;;;;;4981155;28;19926;-67
2023/05/28 11:34:19;;;;;;;;;;;24.60;64.60;;;;;;4971709;28;19926;-68
2023/05/28 11:36:51;;;;;;;;;;;24.60;66.00;;;;;;4976093;28;20398;-67
2023/05/28 11:39:22;;;;;;;;;;;24.60;68.00;;;;;;4975047;28;19933;-68
2023/05/28 11:41:50;;;;;;;;;;;24.50;65.00;;;;;;4977123;28;20080;-67
2023/05/28 11:44:22;;;;;;;;;;;24.60;69.40;;;;;;4979231;28;19932;-68
2023/05/28 11:46:55;;;;;;;;;;;24.70;71.80;;;;;;4981672;28;19929;-68
2023/05/28 11:49:27;;;;;;;;;;;24.80;68.10;;;;;;4981255;28;19926;-67
2023/05/28 11:52:00;;;;;;;;;;;25.00;69.50;;;;;;4985744;28;20402;-68
2023/05/28 11:54:26;;;;;;;;;;;25.00;66.70;;;;;;4979575;28;20028;-68
2023/05/28 11:57:02;;;;;;;;;;;25.00;66.40;;;;;;4978211;28;19929;-68
2023/05/28 11:59:29;;;;;;;;;;;25.00;60.20;;;;;;4988666;28;20366;-68
2023/05/28 12:02:11;;;;;;;;;;;25.00;62.50;;;;;;4979539;28;19936;-68
2023/05/28 12:05:00;;;;;;;;;;;24.90;64.80;;;;;;4987611;28;19930;-68
2023/05/28 12:07:33;;;;;;;;;;;25.10;65.90;;;;;;4982416;28;19930;-67
2023/05/28 12:10:06;;;;;;;;;;;25.10;67.40;;;;;;4983229;28;20334;-68
2023/05/28 12:12:42;;;;;;;;;;;25.20;67.80;;;;;;4985339;28;20016;-68
2023/05/28 12:15:15;;;;;;;;;;;25.30;66.90;;;;;;4984669;28;19933;-68
2023/05/28 12:17:52;;;;;;;;;;;25.10;62.60;;;;;;4983227;28;20040;-68
2023/05/28 12:20:24;;;;;;;;;;;25.00;65.80;;;;;;4982851;28;20291;-68
2023/05/28 12:23:04;;;;;;;;;;;25.00;67.20;;;;;;4986457;28;19988;-68
2023/05/28 12:25:41;;;;;;;;;;;25.20;68.20;;;;;;4979886;28;20589;-67
2023/05/28 12:28:11;;;;;;;;;;;25.40;69.20;;;;;;4977483;28;20013;-67
2023/05/28 12:30:44;;;;;;;;;;;25.60;67.50;;;;;;4984832;28;20040;-68
2023/05/28 12:33:16;;;;;;;;;;;25.70;64.60;;;;;;4986682;28;19940;-68
2023/05/28 12:35:47;;;;;;;;;;;25.70;63.70;;;;;;4986692;28;19941;-68
2023/05/28 12:38:14;;;;;;;;;;;25.60;61.70;;;;;;4983480;28;19926;-68
2023/05/28 12:40:41;;;;;;;;;;;25.50;60.50;;;;;;4986604;28;19972;-68
2023/05/28 12:43:13;;;;;;;;;;;25.40;61.30;;;;;;4983811;28;19926;-68
2023/05/28 12:45:45;;;;;;;;;;;25.50;59.90;;;;;;4978363;28;19933;-68
2023/05/28 12:48:17;;;;;;;;;;;25.60;61.90;;;;;;4975864;28;19926;-69
2023/05/28 12:50:50;;;;;;;;;;;25.60;60.30;;;;;;4980738;28;19948;-68
2023/05/28 12:53:21;;;;;;;;;;;25.70;64.30;;;;;;4979452;28;20301;-68
2023/05/28 12:55:48;;;;;;;;;;;25.90;64.20;;;;;;4979611;28;19925;-69
2023/05/28 12:58:21;;;;;;;;;;;25.90;62.40;;;;;;4983671;28;20005;-68
2023/05/28 13:00:48;;;;;;;;;;;25.90;60.30;;;;;;4987866;28;19965;-69
2023/05/28 13:03:15;;;;;;;;;;;25.90;58.90;;;;;;4984881;28;19926;-68
2023/05/28 13:05:47;;;;;;;;;;;26.00;62.30;;;;;;4981903;28;19933;-69
2023/05/28 13:08:14;;;;;;;;;;;26.20;60.40;;;;;;4980732;28;19926;-69
2023/05/28 13:10:40;;;;;;;;;;;26.30;61.30;;;;;;4989016;28;20032;-68
2023/05/28 13:13:12;;;;;;;;;;;26.60;57.90;;;;;;4981314;28;20302;-69
2023/05/28 13:15:44;;;;;;;;;;;26.60;55.70;;;;;;4981059;28;19985;-67
2023/05/28 13:18:11;;;;;;;;;;;26.70;55.90;;;;;;4977019;28;19933;-69
2023/05/28 13:20:43;;;;;;;;;;;26.70;56.70;;;;;;4989398;28;19934;-67
2023/05/28 13:23:10;;;;;;;;;;;26.70;55.10;;;;;;4984388;28;20021;-68
2023/05/28 13:25:42;;;;;;;;;;;26.70;55.10;;;;;;4986446;28;19932;-68
2023/05/28 13:28:14;;;;;;;;;;;26.60;53.40;;;;;;4983559;28;19926;-67
2023/05/28 13:30:46;;;;;;;;;;;26.50;55.90;;;;;;4981996;28;19930;-68
2023/05/28 13:33:17;;;;;;;;;;;26.40;53.10;;;;;;4979059;28;19929;-68
2023/05/28 13:35:49;;;;;;;;;;;26.30;50.20;;;;;;4988161;28;20355;-68
2023/05/28 13:38:21;;;;;;;;;;;26.30;52.20;;;;;;4987399;28;19933;-68
2023/05/28 13:40:53;;;;;;;;;;;26.30;51.00;;;;;;4979797;28;19926;-68
2023/05/28 13:43:25;;;;;;;;;;;26.30;50.90;;;;;;4981932;28;19965;-68
2023/05/28 13:45:59;;;;;;;;;;;26.30;52.90;;;;;;4979351;28;19980;-70
2023/05/28 13:48:31;;;;;;;;;;;26.60;55.10;;;;;;4986447;28;19926;-67
2023/05/28 13:51:00;;;;;;;;;;;26.80;55.30;;;;;;4985703;28;19929;-67
2023/05/28 13:53:28;;;;;;;;;;;27.10;54.30;;;;;;4983519;28;19930;-67
2023/05/28 13:55:59;;;;;;;;;;;27.30;53.90;;;;;;4981636;28;19931;-67
2023/05/28 13:58:26;;;;;;;;;;;27.60;54.20;;;;;;4981681;28;19926;-67
2023/05/28 14:00:53;;;;;;;;;;;27.70;54.30;;;;;;4988447;28;19937;-67
2023/05/28 14:03:25;;;;;;;;;;;27.80;52.30;;;;;;4984593;28;19977;-69
2023/05/28 14:05:52;;;;;;;;;;;28.00;53.20;;;;;;4981976;28;19973;-68
2023/05/28 14:08:27;;;;;;;;;;;28.30;53.00;;;;;;4979106;28;19930;-69
2023/05/28 14:10:54;;;;;;;;;;;28.30;52.10;;;;;;4981525;28;20449;-66
2023/05/28 14:13:31;;;;;;;;;;;28.20;52.20;;;;;;4986267;28;19932;-66
2023/05/28 14:16:03;;;;;;;;;;;28.20;54.10;;;;;;4987078;28;19929;-65
2023/05/28 14:18:34;;;;;;;;;;;28.40;53.20;;;;;;4984946;28;20478;-66
2023/05/28 14:21:07;;;;;;;;;;;28.60;51.70;;;;;;4983399;28;20413;-66
2023/05/28 14:23:33;;;;;;;;;;;28.80;52.70;;;;;;4988967;28;19929;-66
2023/05/28 14:26:05;;;;;;;;;;;28.90;52.50;;;;;;4986786;28;19925;-66
2023/05/28 14:28:38;;;;;;;;;;;29.20;53.10;;;;;;4973980;28;21622;-66
2023/05/28 14:31:10;;;;;;;;;;;29.40;51.80;;;;;;4981352;28;19926;-66
2023/05/28 14:33:42;;;;;;;;;;;29.60;52.10;;;;;;4985064;28;19930;-66
2023/05/28 14:36:14;;;;;;;;;;;29.50;50.60;;;;;;4982885;28;19927;-66
2023/05/28 14:38:45;;;;;;;;;;;29.20;51.90;;;;;;4985425;28;20435;-66
2023/05/28 14:41:12;;;;;;;;;;;28.90;50.70;;;;;;4982409;28;20018;-66
2023/05/28 14:43:45;;;;;;;;;;;28.70;50.50;;;;;;4984198;28;19930;-66
2023/05/28 14:46:16;;;;;;;;;;;28.90;52.40;;;;;;4984693;28;19926;-66
2023/05/28 14:48:48;;;;;;;;;;;29.10;51.70;;;;;;4982997;28;19933;-66